sensor_id;sensor_type;location;lat;lon;timestamp;temperature;humidity
45060;DHT22;30799;49.060;9.312;2023-05-14T00:02:02;19.30;65.20
45060;DHT22;30799;49.060;9.312;2023-05-14T00:04:29;19.20;65.20
45060;DHT22;30799;49.060;9.312;2023-05-14T00:06:56;19.20;65.20
45060;DHT22;30799;49.060;9.312;2023-05-14T00:09:22;19.20;65.20
45060;DHT22;30799;49.060;9.312;2023-05-14T00:11:49;19.20;65.10
45060;DHT22;30799;49.060;9.312;2023-05-14T00:14:15;19.20;65.20
45060;DHT22;30799;49.060;9.312;2023-05-14T00:16:42;19.20;65.20
45060;DHT22;30799;49.060;9.312;2023-05-14T00:19:09;19.20;65.20
45060;DHT22;30799;49.060;9.312;2023-05-14T00:21:36;19.20;65.10
45060;DHT22;30799;49.060;9.312;2023-05-14T00:24:02;19.20;65.10
45060;DHT22;30799;49.060;9.312;2023-05-14T00:26:29;19.20;65.10
45060;DHT22;30799;49.060;9.312;2023-05-14T00:28:56;19.20;65.20
45060;DHT22;30799;49.060;9.312;2023-05-14T00:31:22;19.20;65.20
45060;DHT22;30799;49.060;9.312;2023-05-14T00:33:49;19.20;65.10
45060;DHT22;30799;49.060;9.312;2023-05-14T00:36:16;19.20;65.10
45060;DHT22;30799;49.060;9.312;2023-05-14T00:38:43;19.20;65.00
45060;DHT22;30799;49.060;9.312;2023-05-14T00:41:09;19.20;65.10
45060;DHT22;30799;49.060;9.312;2023-05-14T00:43:36;19.20;65.10
45060;DHT22;30799;49.060;9.312;2023-05-14T00:46:02;19.20;65.10
45060;DHT22;30799;49.060;9.312;2023-05-14T00:48:29;19.20;65.00
45060;DHT22;30799;49.060;9.312;2023-05-14T00:50:56;19.20;65.00
45060;DHT22;30799;49.060;9.312;2023-05-14T00:53:23;19.20;65.70
45060;DHT22;30799;49.060;9.312;2023-05-14T00:55:50;19.20;64.90
45060;DHT22;30799;49.060;9.312;2023-05-14T00:58:18;19.20;65.00
45060;DHT22;30799;49.060;9.312;2023-05-14T01:00:44;19.20;65.10
45060;DHT22;30799;49.060;9.312;2023-05-14T01:03:11;19.20;65.00
45060;DHT22;30799;49.060;9.312;2023-05-14T01:06:05;19.20;65.00
45060;DHT22;30799;49.060;9.312;2023-05-14T01:08:49;19.20;64.90
45060;DHT22;30799;49.060;9.312;2023-05-14T01:14:20;19.20;65.10
45060;DHT22;30799;49.060;9.312;2023-05-14T01:16:49;19.20;65.10
45060;DHT22;30799;49.060;9.312;2023-05-14T01:19:25;19.20;65.00
45060;DHT22;30799;49.060;9.312;2023-05-14T01:21:55;19.20;65.00
45060;DHT22;30799;49.060;9.312;2023-05-14T01:24:21;19.20;65.00
45060;DHT22;30799;49.060;9.312;2023-05-14T01:26:48;19.20;65.00
45060;DHT22;30799;49.060;9.312;2023-05-14T01:29:20;19.20;65.00
45060;DHT22;30799;49.060;9.312;2023-05-14T01:31:48;19.20;65.00
45060;DHT22;30799;49.060;9.312;2023-05-14T01:34:19;19.20;65.00
45060;DHT22;30799;49.060;9.312;2023-05-14T01:36:48;19.20;65.00
45060;DHT22;30799;49.060;9.312;2023-05-14T01:39:15;19.10;65.00
45060;DHT22;30799;49.060;9.312;2023-05-14T01:41:43;19.20;65.00
45060;DHT22;30799;49.060;9.312;2023-05-14T01:44:10;19.20;65.10
45060;DHT22;30799;49.060;9.312;2023-05-14T01:46:37;19.20;65.00
45060;DHT22;30799;49.060;9.312;2023-05-14T01:49:04;19.20;65.00
45060;DHT22;30799;49.060;9.312;2023-05-14T01:51:31;19.20;65.00
45060;DHT22;30799;49.060;9.312;2023-05-14T01:53:57;19.20;65.10
45060;DHT22;30799;49.060;9.312;2023-05-14T01:56:24;19.20;65.00
45060;DHT22;30799;49.060;9.312;2023-05-14T01:58:51;19.10;65.00
45060;DHT22;30799;49.060;9.312;2023-05-14T02:08:47;19.20;65.00
45060;DHT22;30799;49.060;9.312;2023-05-14T02:11:13;19.10;64.80
45060;DHT22;30799;49.060;9.312;2023-05-14T02:13:40;19.20;64.80
45060;DHT22;30799;49.060;9.312;2023-05-14T02:16:07;19.10;64.90
45060;DHT22;30799;49.060;9.312;2023-05-14T02:18:34;19.20;64.80
45060;DHT22;30799;49.060;9.312;2023-05-14T02:21:00;19.20;64.80
45060;DHT22;30799;49.060;9.312;2023-05-14T02:23:27;19.10;64.80
45060;DHT22;30799;49.060;9.312;2023-05-14T02:26:08;19.10;64.70
45060;DHT22;30799;49.060;9.312;2023-05-14T02:28:35;19.10;64.90
45060;DHT22;30799;49.060;9.312;2023-05-14T02:31:01;19.10;64.80
45060;DHT22;30799;49.060;9.312;2023-05-14T02:33:28;19.10;65.00
45060;DHT22;30799;49.060;9.312;2023-05-14T02:35:55;19.10;65.00
45060;DHT22;30799;49.060;9.312;2023-05-14T02:38:22;19.10;64.90
45060;DHT22;30799;49.060;9.312;2023-05-14T02:40:49;19.10;64.80
45060;DHT22;30799;49.060;9.312;2023-05-14T02:43:15;19.10;65.00
45060;DHT22;30799;49.060;9.312;2023-05-14T02:45:42;19.10;64.70
45060;DHT22;30799;49.060;9.312;2023-05-14T02:48:08;19.10;65.00
45060;DHT22;30799;49.060;9.312;2023-05-14T02:50:35;19.10;65.00
45060;DHT22;30799;49.060;9.312;2023-05-14T02:53:02;19.10;64.90
45060;DHT22;30799;49.060;9.312;2023-05-14T02:55:28;19.10;65.00
45060;DHT22;30799;49.060;9.312;2023-05-14T02:57:55;19.10;65.00
45060;DHT22;30799;49.060;9.312;2023-05-14T03:00:22;19.10;65.00
45060;DHT22;30799;49.060;9.312;2023-05-14T03:02:49;19.10;64.80
45060;DHT22;30799;49.060;9.312;2023-05-14T03:05:17;19.10;64.80
45060;DHT22;30799;49.060;9.312;2023-05-14T03:07:43;19.10;64.90
45060;DHT22;30799;49.060;9.312;2023-05-14T03:10:10;19.10;64.70
45060;DHT22;30799;49.060;9.312;2023-05-14T03:12:37;19.10;64.70
45060;DHT22;30799;49.060;9.312;2023-05-14T03:15:04;19.10;64.60
45060;DHT22;30799;49.060;9.312;2023-05-14T03:17:31;19.10;64.70
45060;DHT22;30799;49.060;9.312;2023-05-14T03:19:57;19.10;64.80
45060;DHT22;30799;49.060;9.312;2023-05-14T03:22:24;19.10;64.80
45060;DHT22;30799;49.060;9.312;2023-05-14T03:24:51;19.10;64.80
45060;DHT22;30799;49.060;9.312;2023-05-14T03:27:17;19.10;64.80
45060;DHT22;30799;49.060;9.312;2023-05-14T03:29:44;19.10;64.70
45060;DHT22;30799;49.060;9.312;2023-05-14T03:32:11;19.10;64.70
45060;DHT22;30799;49.060;9.312;2023-05-14T03:34:37;19.10;65.00
45060;DHT22;30799;49.060;9.312;2023-05-14T03:37:04;19.10;64.70
45060;DHT22;30799;49.060;9.312;2023-05-14T03:39:30;19.10;64.80
45060;DHT22;30799;49.060;9.312;2023-05-14T03:41:57;19.10;64.70
45060;DHT22;30799;49.060;9.312;2023-05-14T03:44:24;19.10;64.60
45060;DHT22;30799;49.060;9.312;2023-05-14T03:46:51;19.10;65.50
45060;DHT22;30799;49.060;9.312;2023-05-14T03:49:17;19.10;64.80
45060;DHT22;30799;49.060;9.312;2023-05-14T03:51:44;19.10;64.70
45060;DHT22;30799;49.060;9.312;2023-05-14T03:54:11;19.10;64.70
45060;DHT22;30799;49.060;9.312;2023-05-14T03:56:37;19.10;64.70
45060;DHT22;30799;49.060;9.312;2023-05-14T03:59:04;19.10;64.90
45060;DHT22;30799;49.060;9.312;2023-05-14T04:01:31;19.10;64.80
45060;DHT22;30799;49.060;9.312;2023-05-14T04:03:57;19.10;64.70
45060;DHT22;30799;49.060;9.312;2023-05-14T04:06:24;19.10;64.80
45060;DHT22;30799;49.060;9.312;2023-05-14T04:08:51;19.10;64.70
45060;DHT22;30799;49.060;9.312;2023-05-14T04:11:17;19.10;64.60
45060;DHT22;30799;49.060;9.312;2023-05-14T04:13:44;19.10;64.70
45060;DHT22;30799;49.060;9.312;2023-05-14T04:16:11;19.10;64.80
45060;DHT22;30799;49.060;9.312;2023-05-14T04:18:37;19.10;64.80
45060;DHT22;30799;49.060;9.312;2023-05-14T04:21:04;19.10;64.60
45060;DHT22;30799;49.060;9.312;2023-05-14T04:23:31;19.10;64.60
45060;DHT22;30799;49.060;9.312;2023-05-14T04:25:58;19.10;64.70
45060;DHT22;30799;49.060;9.312;2023-05-14T04:28:24;19.10;64.70
45060;DHT22;30799;49.060;9.312;2023-05-14T04:30:51;19.10;64.90
45060;DHT22;30799;49.060;9.312;2023-05-14T04:33:18;19.10;64.70
45060;DHT22;30799;49.060;9.312;2023-05-14T04:35:45;19.10;64.90
45060;DHT22;30799;49.060;9.312;2023-05-14T04:38:11;19.10;64.50
45060;DHT22;30799;49.060;9.312;2023-05-14T04:40:39;19.10;64.60
45060;DHT22;30799;49.060;9.312;2023-05-14T04:43:09;19.10;64.60
45060;DHT22;30799;49.060;9.312;2023-05-14T04:45:36;19.10;64.70
45060;DHT22;30799;49.060;9.312;2023-05-14T04:48:03;19.10;64.80
45060;DHT22;30799;49.060;9.312;2023-05-14T04:50:30;19.10;64.80
45060;DHT22;30799;49.060;9.312;2023-05-14T04:52:57;19.10;64.70
45060;DHT22;30799;49.060;9.312;2023-05-14T04:55:24;19.10;64.80
45060;DHT22;30799;49.060;9.312;2023-05-14T04:57:50;19.10;64.70
45060;DHT22;30799;49.060;9.312;2023-05-14T05:00:17;19.10;64.70
45060;DHT22;30799;49.060;9.312;2023-05-14T05:02:44;19.10;64.80
45060;DHT22;30799;49.060;9.312;2023-05-14T05:05:11;19.10;64.90
45060;DHT22;30799;49.060;9.312;2023-05-14T05:07:37;19.10;64.80
45060;DHT22;30799;49.060;9.312;2023-05-14T05:10:04;19.10;65.70
45060;DHT22;30799;49.060;9.312;2023-05-14T05:12:31;19.10;64.60
45060;DHT22;30799;49.060;9.312;2023-05-14T05:14:58;19.00;64.50
45060;DHT22;30799;49.060;9.312;2023-05-14T05:17:25;19.10;64.80
45060;DHT22;30799;49.060;9.312;2023-05-14T05:19:51;19.10;64.80
45060;DHT22;30799;49.060;9.312;2023-05-14T05:22:18;19.10;64.80
45060;DHT22;30799;49.060;9.312;2023-05-14T05:24:45;19.10;64.60
45060;DHT22;30799;49.060;9.312;2023-05-14T05:27:15;19.10;64.50
45060;DHT22;30799;49.060;9.312;2023-05-14T05:29:43;19.10;64.70
45060;DHT22;30799;49.060;9.312;2023-05-14T05:32:09;19.10;64.70
45060;DHT22;30799;49.060;9.312;2023-05-14T05:34:36;19.10;64.50
45060;DHT22;30799;49.060;9.312;2023-05-14T05:37:03;19.10;64.40
45060;DHT22;30799;49.060;9.312;2023-05-14T05:39:31;19.00;64.30
45060;DHT22;30799;49.060;9.312;2023-05-14T05:42:01;19.10;64.40
45060;DHT22;30799;49.060;9.312;2023-05-14T05:44:28;19.00;64.30
45060;DHT22;30799;49.060;9.312;2023-05-14T05:46:54;19.10;64.40
45060;DHT22;30799;49.060;9.312;2023-05-14T05:49:23;19.10;64.30
45060;DHT22;30799;49.060;9.312;2023-05-14T05:51:49;19.00;64.40
45060;DHT22;30799;49.060;9.312;2023-05-14T05:54:16;19.10;64.40
45060;DHT22;30799;49.060;9.312;2023-05-14T05:56:43;19.10;64.50
45060;DHT22;30799;49.060;9.312;2023-05-14T05:59:09;19.00;64.40
45060;DHT22;30799;49.060;9.312;2023-05-14T06:01:36;19.10;64.50
45060;DHT22;30799;49.060;9.312;2023-05-14T06:04:03;19.10;64.50
45060;DHT22;30799;49.060;9.312;2023-05-14T06:06:31;19.00;64.50
45060;DHT22;30799;49.060;9.312;2023-05-14T06:08:58;19.10;64.40
45060;DHT22;30799;49.060;9.312;2023-05-14T06:11:27;19.10;64.30
45060;DHT22;30799;49.060;9.312;2023-05-14T06:13:53;19.10;64.60
45060;DHT22;30799;49.060;9.312;2023-05-14T06:16:20;19.00;64.20
45060;DHT22;30799;49.060;9.312;2023-05-14T06:18:47;19.00;64.50
45060;DHT22;30799;49.060;9.312;2023-05-14T06:21:13;19.10;64.30
45060;DHT22;30799;49.060;9.312;2023-05-14T06:23:40;19.10;64.40
45060;DHT22;30799;49.060;9.312;2023-05-14T06:26:07;19.10;64.50
45060;DHT22;30799;49.060;9.312;2023-05-14T06:28:33;19.10;64.50
45060;DHT22;30799;49.060;9.312;2023-05-14T06:31:00;19.10;64.20
45060;DHT22;30799;49.060;9.312;2023-05-14T06:33:26;19.10;64.40
45060;DHT22;30799;49.060;9.312;2023-05-14T06:36:02;19.10;64.50
45060;DHT22;30799;49.060;9.312;2023-05-14T06:38:29;19.10;64.70
45060;DHT22;30799;49.060;9.312;2023-05-14T06:40:56;19.10;64.60
45060;DHT22;30799;49.060;9.312;2023-05-14T06:43:22;19.10;64.50
45060;DHT22;30799;49.060;9.312;2023-05-14T06:45:50;19.10;64.50
45060;DHT22;30799;49.060;9.312;2023-05-14T06:48:17;19.10;64.40
45060;DHT22;30799;49.060;9.312;2023-05-14T06:50:45;19.10;64.40
45060;DHT22;30799;49.060;9.312;2023-05-14T06:53:12;19.10;64.30
45060;DHT22;30799;49.060;9.312;2023-05-14T06:55:38;19.10;64.30
45060;DHT22;30799;49.060;9.312;2023-05-14T06:58:06;19.10;64.20
45060;DHT22;30799;49.060;9.312;2023-05-14T07:00:32;19.10;64.40
45060;DHT22;30799;49.060;9.312;2023-05-14T07:02:59;19.00;64.40
45060;DHT22;30799;49.060;9.312;2023-05-14T07:05:26;19.10;64.40
45060;DHT22;30799;49.060;9.312;2023-05-14T07:07:52;19.00;64.20
45060;DHT22;30799;49.060;9.312;2023-05-14T07:10:19;19.10;64.20
45060;DHT22;30799;49.060;9.312;2023-05-14T07:12:46;19.10;64.50
45060;DHT22;30799;49.060;9.312;2023-05-14T07:15:13;19.10;64.20
45060;DHT22;30799;49.060;9.312;2023-05-14T07:17:40;19.10;64.50
45060;DHT22;30799;49.060;9.312;2023-05-14T07:20:07;19.10;64.50
45060;DHT22;30799;49.060;9.312;2023-05-14T07:22:34;19.10;64.20
45060;DHT22;30799;49.060;9.312;2023-05-14T07:25:01;19.00;64.30
45060;DHT22;30799;49.060;9.312;2023-05-14T07:27:28;19.10;64.40
45060;DHT22;30799;49.060;9.312;2023-05-14T07:29:55;19.10;64.20
45060;DHT22;30799;49.060;9.312;2023-05-14T07:32:21;19.10;64.20
45060;DHT22;30799;49.060;9.312;2023-05-14T07:34:50;19.10;64.40
45060;DHT22;30799;49.060;9.312;2023-05-14T07:37:17;19.10;64.40
45060;DHT22;30799;49.060;9.312;2023-05-14T07:39:44;19.10;64.50
45060;DHT22;30799;49.060;9.312;2023-05-14T07:42:10;19.10;64.70
45060;DHT22;30799;49.060;9.312;2023-05-14T07:44:50;19.10;64.40
45060;DHT22;30799;49.060;9.312;2023-05-14T07:47:17;19.10;64.50
45060;DHT22;30799;49.060;9.312;2023-05-14T07:49:44;19.10;64.50
45060;DHT22;30799;49.060;9.312;2023-05-14T07:52:10;19.10;64.70
45060;DHT22;30799;49.060;9.312;2023-05-14T07:54:37;19.10;64.70
45060;DHT22;30799;49.060;9.312;2023-05-14T07:57:04;19.10;64.60
45060;DHT22;30799;49.060;9.312;2023-05-14T07:59:31;19.10;64.60
45060;DHT22;30799;49.060;9.312;2023-05-14T08:01:57;19.10;64.70
45060;DHT22;30799;49.060;9.312;2023-05-14T08:04:24;19.10;64.50
45060;DHT22;30799;49.060;9.312;2023-05-14T08:06:51;19.10;64.70
45060;DHT22;30799;49.060;9.312;2023-05-14T08:09:18;19.10;64.70
45060;DHT22;30799;49.060;9.312;2023-05-14T08:11:45;19.10;64.70
45060;DHT22;30799;49.060;9.312;2023-05-14T08:14:11;19.10;64.70
45060;DHT22;30799;49.060;9.312;2023-05-14T08:16:38;19.10;64.80
45060;DHT22;30799;49.060;9.312;2023-05-14T08:19:05;19.10;64.60
45060;DHT22;30799;49.060;9.312;2023-05-14T08:21:31;19.10;64.20
45060;DHT22;30799;49.060;9.312;2023-05-14T08:23:58;19.10;65.10
45060;DHT22;30799;49.060;9.312;2023-05-14T08:26:25;19.10;64.50
45060;DHT22;30799;49.060;9.312;2023-05-14T08:28:52;19.10;64.10
45060;DHT22;30799;49.060;9.312;2023-05-14T08:31:20;19.10;64.40
45060;DHT22;30799;49.060;9.312;2023-05-14T08:33:46;19.10;64.20
45060;DHT22;30799;49.060;9.312;2023-05-14T08:36:13;19.10;64.40
45060;DHT22;30799;49.060;9.312;2023-05-14T08:38:40;19.10;64.40
45060;DHT22;30799;49.060;9.312;2023-05-14T08:41:08;19.10;64.30
45060;DHT22;30799;49.060;9.312;2023-05-14T08:46:29;19.10;65.10
45060;DHT22;30799;49.060;9.312;2023-05-14T08:49:01;19.10;64.40
45060;DHT22;30799;49.060;9.312;2023-05-14T08:51:30;19.10;64.20
45060;DHT22;30799;49.060;9.312;2023-05-14T08:54:01;19.10;64.50
45060;DHT22;30799;49.060;9.312;2023-05-14T08:56:31;19.10;64.60
45060;DHT22;30799;49.060;9.312;2023-05-14T08:58:58;19.10;64.50
45060;DHT22;30799;49.060;9.312;2023-05-14T09:01:25;19.10;65.30
45060;DHT22;30799;49.060;9.312;2023-05-14T09:03:53;19.10;64.50
45060;DHT22;30799;49.060;9.312;2023-05-14T09:06:20;19.10;64.50
45060;DHT22;30799;49.060;9.312;2023-05-14T09:08:48;19.10;64.50
45060;DHT22;30799;49.060;9.312;2023-05-14T09:11:14;19.10;64.50
45060;DHT22;30799;49.060;9.312;2023-05-14T09:13:41;19.10;64.50
45060;DHT22;30799;49.060;9.312;2023-05-14T09:16:08;19.10;64.50
45060;DHT22;30799;49.060;9.312;2023-05-14T09:18:35;19.10;64.50
45060;DHT22;30799;49.060;9.312;2023-05-14T09:21:02;19.10;64.40
45060;DHT22;30799;49.060;9.312;2023-05-14T09:23:31;19.10;64.30
45060;DHT22;30799;49.060;9.312;2023-05-14T09:26:03;19.10;64.40
45060;DHT22;30799;49.060;9.312;2023-05-14T09:28:30;19.10;64.40
45060;DHT22;30799;49.060;9.312;2023-05-14T09:30:57;19.10;64.40
45060;DHT22;30799;49.060;9.312;2023-05-14T09:33:28;19.10;64.40
45060;DHT22;30799;49.060;9.312;2023-05-14T09:35:57;19.10;64.30
45060;DHT22;30799;49.060;9.312;2023-05-14T09:38:31;19.10;64.50
45060;DHT22;30799;49.060;9.312;2023-05-14T09:40:59;19.10;64.30
45060;DHT22;30799;49.060;9.312;2023-05-14T09:43:26;19.10;64.40
45060;DHT22;30799;49.060;9.312;2023-05-14T09:45:52;19.10;64.40
45060;DHT22;30799;49.060;9.312;2023-05-14T09:48:19;19.10;64.50
45060;DHT22;30799;49.060;9.312;2023-05-14T09:50:47;19.10;64.40
45060;DHT22;30799;49.060;9.312;2023-05-14T09:53:14;19.10;64.40
45060;DHT22;30799;49.060;9.312;2023-05-14T09:55:41;19.10;64.40
45060;DHT22;30799;49.060;9.312;2023-05-14T09:58:07;19.10;64.20
45060;DHT22;30799;49.060;9.312;2023-05-14T10:00:35;19.10;64.40
45060;DHT22;30799;49.060;9.312;2023-05-14T10:03:05;19.10;64.40
45060;DHT22;30799;49.060;9.312;2023-05-14T10:05:36;19.20;64.50
45060;DHT22;30799;49.060;9.312;2023-05-14T10:08:13;19.10;64.40
45060;DHT22;30799;49.060;9.312;2023-05-14T10:10:43;19.10;64.10
45060;DHT22;30799;49.060;9.312;2023-05-14T10:13:14;19.10;64.20
45060;DHT22;30799;49.060;9.312;2023-05-14T10:15:48;19.10;64.40
45060;DHT22;30799;49.060;9.312;2023-05-14T10:18:24;19.10;64.70
45060;DHT22;30799;49.060;9.312;2023-05-14T10:21:03;19.10;65.10
45060;DHT22;30799;49.060;9.312;2023-05-14T10:23:30;19.10;64.30
45060;DHT22;30799;49.060;9.312;2023-05-14T10:26:00;19.10;64.30
45060;DHT22;30799;49.060;9.312;2023-05-14T10:28:27;19.10;64.30
45060;DHT22;30799;49.060;9.312;2023-05-14T10:30:54;19.10;64.20
45060;DHT22;30799;49.060;9.312;2023-05-14T10:33:20;19.10;64.30
45060;DHT22;30799;49.060;9.312;2023-05-14T10:36:03;19.10;64.10
45060;DHT22;30799;49.060;9.312;2023-05-14T10:38:34;19.10;64.30
45060;DHT22;30799;49.060;9.312;2023-05-14T10:41:02;19.10;64.20
45060;DHT22;30799;49.060;9.312;2023-05-14T10:43:33;19.20;64.30
45060;DHT22;30799;49.060;9.312;2023-05-14T10:46:01;19.20;64.20
45060;DHT22;30799;49.060;9.312;2023-05-14T10:48:28;19.10;64.20
45060;DHT22;30799;49.060;9.312;2023-05-14T10:50:56;19.10;64.20
45060;DHT22;30799;49.060;9.312;2023-05-14T10:53:49;19.20;64.10
45060;DHT22;30799;49.060;9.312;2023-05-14T10:56:16;19.10;64.20
45060;DHT22;30799;49.060;9.312;2023-05-14T10:58:43;19.20;64.20
45060;DHT22;30799;49.060;9.312;2023-05-14T11:01:12;19.20;64.20
45060;DHT22;30799;49.060;9.312;2023-05-14T11:03:45;19.20;64.30
45060;DHT22;30799;49.060;9.312;2023-05-14T11:06:15;19.20;64.20
45060;DHT22;30799;49.060;9.312;2023-05-14T11:08:42;19.20;64.20
45060;DHT22;30799;49.060;9.312;2023-05-14T11:11:09;19.20;64.20
45060;DHT22;30799;49.060;9.312;2023-05-14T11:13:37;19.20;64.20
45060;DHT22;30799;49.060;9.312;2023-05-14T11:16:04;19.20;64.20
45060;DHT22;30799;49.060;9.312;2023-05-14T11:18:59;19.20;64.10
45060;DHT22;30799;49.060;9.312;2023-05-14T11:21:27;19.20;63.90
45060;DHT22;30799;49.060;9.312;2023-05-14T11:23:55;19.20;64.20
45060;DHT22;30799;49.060;9.312;2023-05-14T11:26:22;19.20;64.10
45060;DHT22;30799;49.060;9.312;2023-05-14T11:28:49;19.20;64.10
45060;DHT22;30799;49.060;9.312;2023-05-14T11:31:16;19.20;64.20
45060;DHT22;30799;49.060;9.312;2023-05-14T11:33:43;19.20;64.20
45060;DHT22;30799;49.060;9.312;2023-05-14T11:36:10;19.20;64.20
45060;DHT22;30799;49.060;9.312;2023-05-14T11:38:47;19.20;64.20
45060;DHT22;30799;49.060;9.312;2023-05-14T11:41:16;19.20;64.20
45060;DHT22;30799;49.060;9.312;2023-05-14T11:43:42;19.20;64.30
45060;DHT22;30799;49.060;9.312;2023-05-14T11:46:15;19.20;63.80
45060;DHT22;30799;49.060;9.312;2023-05-14T11:48:43;19.20;63.90
45060;DHT22;30799;49.060;9.312;2023-05-14T11:51:11;19.20;64.90
45060;DHT22;30799;49.060;9.312;2023-05-14T11:53:38;19.20;63.90
45060;DHT22;30799;49.060;9.312;2023-05-14T11:56:04;19.20;63.80
45060;DHT22;30799;49.060;9.312;2023-05-14T11:58:35;19.20;64.00
45060;DHT22;30799;49.060;9.312;2023-05-14T12:01:01;19.20;63.80
45060;DHT22;30799;49.060;9.312;2023-05-14T12:03:29;19.20;64.10
45060;DHT22;30799;49.060;9.312;2023-05-14T12:06:00;19.20;64.10
45060;DHT22;30799;49.060;9.312;2023-05-14T12:08:29;19.20;63.90
45060;DHT22;30799;49.060;9.312;2023-05-14T12:10:58;19.20;64.10
45060;DHT22;30799;49.060;9.312;2023-05-14T12:13:27;19.20;63.80
45060;DHT22;30799;49.060;9.312;2023-05-14T12:16:01;19.20;64.10
45060;DHT22;30799;49.060;9.312;2023-05-14T12:18:30;19.20;64.10
45060;DHT22;30799;49.060;9.312;2023-05-14T12:21:04;19.20;64.00
45060;DHT22;30799;49.060;9.312;2023-05-14T12:23:33;19.20;63.90
45060;DHT22;30799;49.060;9.312;2023-05-14T12:26:01;19.20;64.10
45060;DHT22;30799;49.060;9.312;2023-05-14T12:28:29;19.20;64.00
45060;DHT22;30799;49.060;9.312;2023-05-14T12:30:55;19.20;64.10
45060;DHT22;30799;49.060;9.312;2023-05-14T12:33:23;19.20;64.00
45060;DHT22;30799;49.060;9.312;2023-05-14T12:35:52;19.20;64.10
45060;DHT22;30799;49.060;9.312;2023-05-14T12:38:19;19.20;63.90
45060;DHT22;30799;49.060;9.312;2023-05-14T12:40:46;19.20;63.90
45060;DHT22;30799;49.060;9.312;2023-05-14T12:43:13;19.20;64.10
45060;DHT22;30799;49.060;9.312;2023-05-14T12:45:39;19.20;64.00
45060;DHT22;30799;49.060;9.312;2023-05-14T12:48:06;19.20;64.10
45060;DHT22;30799;49.060;9.312;2023-05-14T12:50:33;19.20;64.10
45060;DHT22;30799;49.060;9.312;2023-05-14T12:52:59;19.20;64.00
45060;DHT22;30799;49.060;9.312;2023-05-14T12:55:26;19.20;64.10
45060;DHT22;30799;49.060;9.312;2023-05-14T12:57:54;19.20;63.90
45060;DHT22;30799;49.060;9.312;2023-05-14T13:00:20;19.30;64.10
45060;DHT22;30799;49.060;9.312;2023-05-14T13:02:47;19.20;63.90
45060;DHT22;30799;49.060;9.312;2023-05-14T13:05:14;19.20;63.80
45060;DHT22;30799;49.060;9.312;2023-05-14T13:07:41;19.30;64.00
45060;DHT22;30799;49.060;9.312;2023-05-14T13:10:08;19.20;64.60
45060;DHT22;30799;49.060;9.312;2023-05-14T13:12:35;19.20;63.80
45060;DHT22;30799;49.060;9.312;2023-05-14T13:15:01;19.20;63.70
45060;DHT22;30799;49.060;9.312;2023-05-14T13:17:28;19.20;63.80
45060;DHT22;30799;49.060;9.312;2023-05-14T13:19:55;19.20;63.90
45060;DHT22;30799;49.060;9.312;2023-05-14T13:22:22;19.20;63.90
45060;DHT22;30799;49.060;9.312;2023-05-14T13:24:48;19.20;63.80
45060;DHT22;30799;49.060;9.312;2023-05-14T13:27:15;19.20;63.80
45060;DHT22;30799;49.060;9.312;2023-05-14T13:29:42;19.20;63.70
45060;DHT22;30799;49.060;9.312;2023-05-14T13:32:08;19.30;63.90
45060;DHT22;30799;49.060;9.312;2023-05-14T13:34:35;19.30;63.90
45060;DHT22;30799;49.060;9.312;2023-05-14T13:37:02;19.20;63.90
45060;DHT22;30799;49.060;9.312;2023-05-14T13:39:29;19.20;63.90
45060;DHT22;30799;49.060;9.312;2023-05-14T13:41:56;19.20;64.00
45060;DHT22;30799;49.060;9.312;2023-05-14T13:44:23;19.20;64.10
45060;DHT22;30799;49.060;9.312;2023-05-14T13:46:50;19.20;64.00
45060;DHT22;30799;49.060;9.312;2023-05-14T13:49:16;19.20;64.10
45060;DHT22;30799;49.060;9.312;2023-05-14T13:51:43;19.20;64.10
45060;DHT22;30799;49.060;9.312;2023-05-14T13:54:11;19.20;64.10
45060;DHT22;30799;49.060;9.312;2023-05-14T13:56:37;19.20;64.00
45060;DHT22;30799;49.060;9.312;2023-05-14T13:59:04;19.30;62.80
45060;DHT22;30799;49.060;9.312;2023-05-14T14:01:31;19.30;61.90
45060;DHT22;30799;49.060;9.312;2023-05-14T14:03:58;19.30;62.10
45060;DHT22;30799;49.060;9.312;2023-05-14T14:06:25;19.30;62.40
45060;DHT22;30799;49.060;9.312;2023-05-14T14:08:52;19.40;62.50
45060;DHT22;30799;49.060;9.312;2023-05-14T14:11:19;19.40;62.50
45060;DHT22;30799;49.060;9.312;2023-05-14T14:13:47;19.50;62.70
45060;DHT22;30799;49.060;9.312;2023-05-14T14:16:14;19.50;62.70
45060;DHT22;30799;49.060;9.312;2023-05-14T14:18:41;19.50;63.20
45060;DHT22;30799;49.060;9.312;2023-05-14T14:21:09;19.60;63.00
45060;DHT22;30799;49.060;9.312;2023-05-14T14:23:35;19.50;63.00
45060;DHT22;30799;49.060;9.312;2023-05-14T14:26:02;19.60;63.30
45060;DHT22;30799;49.060;9.312;2023-05-14T14:28:29;19.50;63.70
45060;DHT22;30799;49.060;9.312;2023-05-14T14:30:56;19.60;63.70
45060;DHT22;30799;49.060;9.312;2023-05-14T14:33:23;19.60;63.80
45060;DHT22;30799;49.060;9.312;2023-05-14T14:35:50;19.60;63.90
45060;DHT22;30799;49.060;9.312;2023-05-14T14:38:17;19.60;63.90
45060;DHT22;30799;49.060;9.312;2023-05-14T14:40:43;19.60;64.20
45060;DHT22;30799;49.060;9.312;2023-05-14T14:43:11;19.60;64.00
45060;DHT22;30799;49.060;9.312;2023-05-14T14:45:38;19.60;63.70
45060;DHT22;30799;49.060;9.312;2023-05-14T14:48:24;19.70;63.80
45060;DHT22;30799;49.060;9.312;2023-05-14T14:50:52;19.70;63.60
45060;DHT22;30799;49.060;9.312;2023-05-14T14:53:20;19.70;63.70
45060;DHT22;30799;49.060;9.312;2023-05-14T14:55:50;19.70;64.00
45060;DHT22;30799;49.060;9.312;2023-05-14T14:58:17;19.70;63.80
45060;DHT22;30799;49.060;9.312;2023-05-14T15:00:45;19.70;64.10
45060;DHT22;30799;49.060;9.312;2023-05-14T15:03:11;19.70;63.90
45060;DHT22;30799;49.060;9.312;2023-05-14T15:05:40;19.70;63.90
45060;DHT22;30799;49.060;9.312;2023-05-14T15:08:07;19.80;64.10
45060;DHT22;30799;49.060;9.312;2023-05-14T15:10:33;19.90;64.20
45060;DHT22;30799;49.060;9.312;2023-05-14T15:13:05;19.90;64.00
45060;DHT22;30799;49.060;9.312;2023-05-14T15:15:32;20.00;64.10
45060;DHT22;30799;49.060;9.312;2023-05-14T15:18:00;20.10;64.20
45060;DHT22;30799;49.060;9.312;2023-05-14T15:20:27;20.00;64.00
45060;DHT22;30799;49.060;9.312;2023-05-14T15:22:54;20.00;64.10
45060;DHT22;30799;49.060;9.312;2023-05-14T15:25:22;20.00;63.60
45060;DHT22;30799;49.060;9.312;2023-05-14T15:27:49;20.10;63.00
45060;DHT22;30799;49.060;9.312;2023-05-14T15:30:16;20.10;62.80
45060;DHT22;30799;49.060;9.312;2023-05-14T15:32:44;20.10;63.10
45060;DHT22;30799;49.060;9.312;2023-05-14T15:35:11;20.00;63.00
45060;DHT22;30799;49.060;9.312;2023-05-14T15:37:42;20.00;62.90
45060;DHT22;30799;49.060;9.312;2023-05-14T15:40:10;20.00;62.80
45060;DHT22;30799;49.060;9.312;2023-05-14T15:42:39;20.00;62.10
45060;DHT22;30799;49.060;9.312;2023-05-14T15:45:11;20.10;61.80
45060;DHT22;30799;49.060;9.312;2023-05-14T15:47:41;20.10;61.50